sensor_id;sensor_type;location;lat;lon;timestamp;temperature;humidity
64549;DHT22;49838;51.798;10.954;2023-02-15T00:01:34;11.80;38.70
64549;DHT22;49838;51.798;10.954;2023-02-15T00:04:03;11.80;38.70
64549;DHT22;49838;51.798;10.954;2023-02-15T00:06:33;11.70;38.60
64549;DHT22;49838;51.798;10.954;2023-02-15T00:09:00;11.70;38.60
64549;DHT22;49838;51.798;10.954;2023-02-15T00:11:28;11.70;38.60
64549;DHT22;49838;51.798;10.954;2023-02-15T00:14:09;11.70;38.50
64549;DHT22;49838;51.798;10.954;2023-02-15T00:16:37;11.60;38.50
64549;DHT22;49838;51.798;10.954;2023-02-15T00:19:05;11.50;38.50
64549;DHT22;49838;51.798;10.954;2023-02-15T00:21:35;11.50;38.50
64549;DHT22;49838;51.798;10.954;2023-02-15T00:24:05;11.40;38.50
64549;DHT22;49838;51.798;10.954;2023-02-15T00:26:33;11.40;38.50
64549;DHT22;49838;51.798;10.954;2023-02-15T00:29:01;11.40;38.50
64549;DHT22;49838;51.798;10.954;2023-02-15T00:31:29;11.40;38.50
64549;DHT22;49838;51.798;10.954;2023-02-15T00:34:00;11.40;38.50
64549;DHT22;49838;51.798;10.954;2023-02-15T00:36:28;11.30;38.30
64549;DHT22;49838;51.798;10.954;2023-02-15T00:38:57;11.30;38.30
64549;DHT22;49838;51.798;10.954;2023-02-15T00:41:24;11.30;38.30
64549;DHT22;49838;51.798;10.954;2023-02-15T00:43:52;11.30;38.20
64549;DHT22;49838;51.798;10.954;2023-02-15T00:46:19;11.20;38.10
64549;DHT22;49838;51.798;10.954;2023-02-15T00:48:46;11.10;38.10
64549;DHT22;49838;51.798;10.954;2023-02-15T00:51:13;11.10;38.10
64549;DHT22;49838;51.798;10.954;2023-02-15T00:53:40;11.10;38.10
64549;DHT22;49838;51.798;10.954;2023-02-15T00:56:09;11.00;38.00
64549;DHT22;49838;51.798;10.954;2023-02-15T00:58:36;11.00;38.00
64549;DHT22;49838;51.798;10.954;2023-02-15T01:01:04;10.90;37.90
64549;DHT22;49838;51.798;10.954;2023-02-15T01:03:33;10.90;38.00
64549;DHT22;49838;51.798;10.954;2023-02-15T01:06:01;10.80;37.90
64549;DHT22;49838;51.798;10.954;2023-02-15T01:08:29;10.80;38.00
64549;DHT22;49838;51.798;10.954;2023-02-15T01:10:59;10.70;37.90
64549;DHT22;49838;51.798;10.954;2023-02-15T01:13:31;10.70;37.90
64549;DHT22;49838;51.798;10.954;2023-02-15T01:15:58;10.60;37.80
64549;DHT22;49838;51.798;10.954;2023-02-15T01:18:26;10.60;37.90
64549;DHT22;49838;51.798;10.954;2023-02-15T01:20:55;10.60;38.00
64549;DHT22;49838;51.798;10.954;2023-02-15T01:23:22;10.50;37.80
64549;DHT22;49838;51.798;10.954;2023-02-15T01:25:49;10.50;37.90
64549;DHT22;49838;51.798;10.954;2023-02-15T01:28:17;10.50;37.80
64549;DHT22;49838;51.798;10.954;2023-02-15T01:30:45;10.50;37.90
64549;DHT22;49838;51.798;10.954;2023-02-15T01:33:12;10.40;37.80
64549;DHT22;49838;51.798;10.954;2023-02-15T01:35:43;10.40;37.80
64549;DHT22;49838;51.798;10.954;2023-02-15T01:38:12;10.40;37.80
64549;DHT22;49838;51.798;10.954;2023-02-15T01:40:39;10.30;37.70
64549;DHT22;49838;51.798;10.954;2023-02-15T01:43:09;10.30;37.80
64549;DHT22;49838;51.798;10.954;2023-02-15T01:45:38;10.30;37.80
64549;DHT22;49838;51.798;10.954;2023-02-15T01:48:11;10.30;37.70
64549;DHT22;49838;51.798;10.954;2023-02-15T01:50:46;10.20;37.70
64549;DHT22;49838;51.798;10.954;2023-02-15T01:53:18;10.20;37.70
64549;DHT22;49838;51.798;10.954;2023-02-15T01:55:50;10.20;37.90
64549;DHT22;49838;51.798;10.954;2023-02-15T01:58:22;10.20;37.90
64549;DHT22;49838;51.798;10.954;2023-02-15T02:00:51;10.20;37.90
64549;DHT22;49838;51.798;10.954;2023-02-15T02:03:22;10.20;37.90
64549;DHT22;49838;51.798;10.954;2023-02-15T02:05:54;10.30;38.00
64549;DHT22;49838;51.798;10.954;2023-02-15T02:08:21;10.30;38.00
64549;DHT22;49838;51.798;10.954;2023-02-15T02:10:48;10.30;38.00
64549;DHT22;49838;51.798;10.954;2023-02-15T02:13:15;10.30;38.00
64549;DHT22;49838;51.798;10.954;2023-02-15T02:15:44;10.40;38.10
64549;DHT22;49838;51.798;10.954;2023-02-15T02:18:23;10.40;38.00
64549;DHT22;49838;51.798;10.954;2023-02-15T02:23:59;10.40;37.90
64549;DHT22;49838;51.798;10.954;2023-02-15T02:29:49;10.30;37.80
64549;DHT22;49838;51.798;10.954;2023-02-15T02:35:33;10.30;38.00
64549;DHT22;49838;51.798;10.954;2023-02-15T02:38:07;10.30;38.00
64549;DHT22;49838;51.798;10.954;2023-02-15T02:40:41;10.30;38.00
64549;DHT22;49838;51.798;10.954;2023-02-15T02:43:15;10.30;37.90
64549;DHT22;49838;51.798;10.954;2023-02-15T02:45:50;10.30;37.80
64549;DHT22;49838;51.798;10.954;2023-02-15T02:48:24;10.30;37.80
64549;DHT22;49838;51.798;10.954;2023-02-15T02:50:54;10.30;37.70
64549;DHT22;49838;51.798;10.954;2023-02-15T02:53:21;10.20;37.60
64549;DHT22;49838;51.798;10.954;2023-02-15T02:55:50;10.20;37.70
64549;DHT22;49838;51.798;10.954;2023-02-15T02:58:21;10.20;37.70
64549;DHT22;49838;51.798;10.954;2023-02-15T03:00:56;10.20;37.70
64549;DHT22;49838;51.798;10.954;2023-02-15T03:03:34;10.10;37.60
64549;DHT22;49838;51.798;10.954;2023-02-15T03:06:05;10.10;37.60
64549;DHT22;49838;51.798;10.954;2023-02-15T03:08:37;10.20;37.60
64549;DHT22;49838;51.798;10.954;2023-02-15T03:11:07;10.10;37.60
64549;DHT22;49838;51.798;10.954;2023-02-15T03:13:36;10.10;37.70
64549;DHT22;49838;51.798;10.954;2023-02-15T03:16:03;10.10;38.20
64549;DHT22;49838;51.798;10.954;2023-02-15T03:18:52;10.10;37.60
64549;DHT22;49838;51.798;10.954;2023-02-15T03:21:25;10.10;37.60
64549;DHT22;49838;51.798;10.954;2023-02-15T03:24:00;10.10;37.70
64549;DHT22;49838;51.798;10.954;2023-02-15T03:26:34;10.10;37.80
64549;DHT22;49838;51.798;10.954;2023-02-15T03:29:03;10.10;37.80
64549;DHT22;49838;51.798;10.954;2023-02-15T03:31:34;10.20;37.90
64549;DHT22;49838;51.798;10.954;2023-02-15T03:34:07;10.20;37.90
64549;DHT22;49838;51.798;10.954;2023-02-15T03:36:39;10.20;37.90
64549;DHT22;49838;51.798;10.954;2023-02-15T03:39:13;10.30;37.80
64549;DHT22;49838;51.798;10.954;2023-02-15T03:41:48;10.20;37.60
64549;DHT22;49838;51.798;10.954;2023-02-15T03:44:23;10.20;37.60
64549;DHT22;49838;51.798;10.954;2023-02-15T03:46:56;10.20;37.60
64549;DHT22;49838;51.798;10.954;2023-02-15T03:49:31;10.10;37.60
64549;DHT22;49838;51.798;10.954;2023-02-15T03:52:05;10.10;37.60
64549;DHT22;49838;51.798;10.954;2023-02-15T03:54:35;10.10;37.60
64549;DHT22;49838;51.798;10.954;2023-02-15T03:57:11;10.10;37.70
64549;DHT22;49838;51.798;10.954;2023-02-15T03:59:58;10.00;37.70
64549;DHT22;49838;51.798;10.954;2023-02-15T04:02:48;10.00;37.80
64549;DHT22;49838;51.798;10.954;2023-02-15T04:05:31;10.10;37.90
64549;DHT22;49838;51.798;10.954;2023-02-15T04:07:59;10.10;37.90
64549;DHT22;49838;51.798;10.954;2023-02-15T04:10:26;10.20;37.80
64549;DHT22;49838;51.798;10.954;2023-02-15T04:13:11;10.20;37.70
64549;DHT22;49838;51.798;10.954;2023-02-15T04:15:38;10.10;37.60
64549;DHT22;49838;51.798;10.954;2023-02-15T04:18:23;10.20;37.70
64549;DHT22;49838;51.798;10.954;2023-02-15T04:21:09;10.10;37.70
64549;DHT22;49838;51.798;10.954;2023-02-15T04:23:54;10.10;37.80
64549;DHT22;49838;51.798;10.954;2023-02-15T04:26:39;10.20;37.80
64549;DHT22;49838;51.798;10.954;2023-02-15T04:29:07;10.20;37.70
64549;DHT22;49838;51.798;10.954;2023-02-15T04:31:34;10.10;37.60
64549;DHT22;49838;51.798;10.954;2023-02-15T04:34:01;10.10;37.60
64549;DHT22;49838;51.798;10.954;2023-02-15T04:36:29;10.10;37.60
64549;DHT22;49838;51.798;10.954;2023-02-15T04:38:57;10.10;37.60
64549;DHT22;49838;51.798;10.954;2023-02-15T04:41:24;10.00;37.50
64549;DHT22;49838;51.798;10.954;2023-02-15T04:43:51;10.00;37.50
64549;DHT22;49838;51.798;10.954;2023-02-15T04:46:18;10.00;37.50
64549;DHT22;49838;51.798;10.954;2023-02-15T04:48:45;9.90;38.30
64549;DHT22;49838;51.798;10.954;2023-02-15T04:51:13;9.90;38.30
64549;DHT22;49838;51.798;10.954;2023-02-15T04:53:41;9.90;38.30
64549;DHT22;49838;51.798;10.954;2023-02-15T04:56:08;9.90;38.30
64549;DHT22;49838;51.798;10.954;2023-02-15T04:58:36;9.90;38.40
64549;DHT22;49838;51.798;10.954;2023-02-15T05:01:06;9.90;38.50
64549;DHT22;49838;51.798;10.954;2023-02-15T05:03:34;9.90;38.50
64549;DHT22;49838;51.798;10.954;2023-02-15T05:06:01;9.90;38.50
64549;DHT22;49838;51.798;10.954;2023-02-15T05:08:29;9.90;38.60
64549;DHT22;49838;51.798;10.954;2023-02-15T05:10:58;9.90;38.60
64549;DHT22;49838;51.798;10.954;2023-02-15T05:13:25;9.90;38.60
64549;DHT22;49838;51.798;10.954;2023-02-15T05:15:53;10.00;37.80
64549;DHT22;49838;51.798;10.954;2023-02-15T05:18:20;10.00;37.80
64549;DHT22;49838;51.798;10.954;2023-02-15T05:20:48;10.00;37.70
64549;DHT22;49838;51.798;10.954;2023-02-15T05:23:16;10.00;37.60
64549;DHT22;49838;51.798;10.954;2023-02-15T05:25:46;10.00;37.50
64549;DHT22;49838;51.798;10.954;2023-02-15T05:28:33;10.00;37.60
64549;DHT22;49838;51.798;10.954;2023-02-15T05:31:03;10.00;37.50
64549;DHT22;49838;51.798;10.954;2023-02-15T05:33:36;9.90;38.20
64549;DHT22;49838;51.798;10.954;2023-02-15T05:36:03;9.90;38.10
64549;DHT22;49838;51.798;10.954;2023-02-15T05:38:31;9.90;38.20
64549;DHT22;49838;51.798;10.954;2023-02-15T05:40:59;9.90;38.20
64549;DHT22;49838;51.798;10.954;2023-02-15T05:43:26;9.80;38.20
64549;DHT22;49838;51.798;10.954;2023-02-15T05:45:55;9.90;38.20
64549;DHT22;49838;51.798;10.954;2023-02-15T05:48:23;9.80;38.20
64549;DHT22;49838;51.798;10.954;2023-02-15T05:51:00;9.80;38.20
64549;DHT22;49838;51.798;10.954;2023-02-15T05:53:30;9.80;38.20
64549;DHT22;49838;51.798;10.954;2023-02-15T05:55:59;9.80;38.80
64549;DHT22;49838;51.798;10.954;2023-02-15T05:58:28;9.80;38.20
64549;DHT22;49838;51.798;10.954;2023-02-15T06:00:58;9.80;38.20
64549;DHT22;49838;51.798;10.954;2023-02-15T06:03:26;9.80;38.20
64549;DHT22;49838;51.798;10.954;2023-02-15T06:05:54;9.70;38.20
64549;DHT22;49838;51.798;10.954;2023-02-15T06:08:21;9.80;38.30
64549;DHT22;49838;51.798;10.954;2023-02-15T06:10:48;9.80;38.30
64549;DHT22;49838;51.798;10.954;2023-02-15T06:13:16;9.80;38.30
64549;DHT22;49838;51.798;10.954;2023-02-15T06:15:43;9.80;38.20
64549;DHT22;49838;51.798;10.954;2023-02-15T06:18:11;9.80;38.20
64549;DHT22;49838;51.798;10.954;2023-02-15T06:20:38;9.80;38.10
64549;DHT22;49838;51.798;10.954;2023-02-15T06:23:06;9.80;38.10
64549;DHT22;49838;51.798;10.954;2023-02-15T06:25:33;9.70;38.10
64549;DHT22;49838;51.798;10.954;2023-02-15T06:28:00;9.70;38.20
64549;DHT22;49838;51.798;10.954;2023-02-15T06:30:27;9.70;38.20
64549;DHT22;49838;51.798;10.954;2023-02-15T06:32:54;9.80;38.30
64549;DHT22;49838;51.798;10.954;2023-02-15T06:35:23;9.80;38.30
64549;DHT22;49838;51.798;10.954;2023-02-15T06:37:50;9.80;38.30
64549;DHT22;49838;51.798;10.954;2023-02-15T06:40:18;9.90;38.40
64549;DHT22;49838;51.798;10.954;2023-02-15T06:42:45;10.00;37.60
64549;DHT22;49838;51.798;10.954;2023-02-15T06:45:13;10.10;37.60
64549;DHT22;49838;51.798;10.954;2023-02-15T06:47:40;10.20;37.70
64549;DHT22;49838;51.798;10.954;2023-02-15T06:50:08;10.40;37.90
64549;DHT22;49838;51.798;10.954;2023-02-15T06:52:37;10.50;37.90
64549;DHT22;49838;51.798;10.954;2023-02-15T06:55:04;10.70;38.00
64549;DHT22;49838;51.798;10.954;2023-02-15T06:57:33;10.80;38.00
64549;DHT22;49838;51.798;10.954;2023-02-15T07:00:00;11.00;38.20
64549;DHT22;49838;51.798;10.954;2023-02-15T07:02:28;11.20;38.30
64549;DHT22;49838;51.798;10.954;2023-02-15T07:04:55;11.40;38.40
64549;DHT22;49838;51.798;10.954;2023-02-15T07:07:22;11.60;38.50
64549;DHT22;49838;51.798;10.954;2023-02-15T07:09:51;11.80;38.60
64549;DHT22;49838;51.798;10.954;2023-02-15T07:12:18;12.00;38.70
64549;DHT22;49838;51.798;10.954;2023-02-15T07:15:04;12.10;38.60
64549;DHT22;49838;51.798;10.954;2023-02-15T07:17:32;12.10;38.50
64549;DHT22;49838;51.798;10.954;2023-02-15T07:19:59;12.10;38.50
64549;DHT22;49838;51.798;10.954;2023-02-15T07:22:27;12.10;38.40
64549;DHT22;49838;51.798;10.954;2023-02-15T07:24:55;12.10;38.40
64549;DHT22;49838;51.798;10.954;2023-02-15T07:27:23;12.10;38.40
64549;DHT22;49838;51.798;10.954;2023-02-15T07:29:50;12.10;38.40
64549;DHT22;49838;51.798;10.954;2023-02-15T07:32:17;12.10;38.40
64549;DHT22;49838;51.798;10.954;2023-02-15T07:34:44;12.10;38.50
64549;DHT22;49838;51.798;10.954;2023-02-15T07:37:11;12.10;39.20
64549;DHT22;49838;51.798;10.954;2023-02-15T07:39:38;12.10;38.60
64549;DHT22;49838;51.798;10.954;2023-02-15T07:42:07;12.20;38.70
64549;DHT22;49838;51.798;10.954;2023-02-15T07:44:34;12.20;38.70
64549;DHT22;49838;51.798;10.954;2023-02-15T07:47:01;12.30;38.70
64549;DHT22;49838;51.798;10.954;2023-02-15T07:49:29;12.30;38.70
64549;DHT22;49838;51.798;10.954;2023-02-15T07:51:56;12.40;38.70
64549;DHT22;49838;51.798;10.954;2023-02-15T07:54:23;12.40;38.70
64549;DHT22;49838;51.798;10.954;2023-02-15T07:56:50;12.40;38.70
64549;DHT22;49838;51.798;10.954;2023-02-15T07:59:20;12.50;38.70
64549;DHT22;49838;51.798;10.954;2023-02-15T08:01:47;12.50;38.70
64549;DHT22;49838;51.798;10.954;2023-02-15T08:04:14;12.60;38.70
64549;DHT22;49838;51.798;10.954;2023-02-15T08:06:43;12.70;38.80
64549;DHT22;49838;51.798;10.954;2023-02-15T08:09:11;12.70;38.80
64549;DHT22;49838;51.798;10.954;2023-02-15T08:11:38;12.80;38.90
64549;DHT22;49838;51.798;10.954;2023-02-15T08:14:07;12.90;38.90
64549;DHT22;49838;51.798;10.954;2023-02-15T08:16:37;13.00;38.90
64549;DHT22;49838;51.798;10.954;2023-02-15T08:19:07;13.10;39.00
64549;DHT22;49838;51.798;10.954;2023-02-15T08:21:36;13.20;39.00
64549;DHT22;49838;51.798;10.954;2023-02-15T08:24:05;13.30;39.00
64549;DHT22;49838;51.798;10.954;2023-02-15T08:26:33;13.40;39.00
64549;DHT22;49838;51.798;10.954;2023-02-15T08:29:01;13.50;39.00
64549;DHT22;49838;51.798;10.954;2023-02-15T08:31:29;13.60;39.00
64549;DHT22;49838;51.798;10.954;2023-02-15T08:33:59;13.70;39.10
64549;DHT22;49838;51.798;10.954;2023-02-15T08:36:27;13.80;39.10
64549;DHT22;49838;51.798;10.954;2023-02-15T08:38:57;13.90;39.10
64549;DHT22;49838;51.798;10.954;2023-02-15T08:41:26;14.10;39.20
64549;DHT22;49838;51.798;10.954;2023-02-15T08:43:56;14.30;39.10
64549;DHT22;49838;51.798;10.954;2023-02-15T08:46:25;14.50;39.20
64549;DHT22;49838;51.798;10.954;2023-02-15T08:48:54;14.70;39.20
64549;DHT22;49838;51.798;10.954;2023-02-15T08:51:23;14.80;39.10
64549;DHT22;49838;51.798;10.954;2023-02-15T08:53:52;15.10;39.10
64549;DHT22;49838;51.798;10.954;2023-02-15T08:56:23;15.30;39.20
64549;DHT22;49838;51.798;10.954;2023-02-15T08:58:52;15.60;39.30
64549;DHT22;49838;51.798;10.954;2023-02-15T09:01:21;16.10;39.60
64549;DHT22;49838;51.798;10.954;2023-02-15T09:03:50;16.70;39.90
64549;DHT22;49838;51.798;10.954;2023-02-15T09:06:19;17.40;40.20
64549;DHT22;49838;51.798;10.954;2023-02-15T09:08:50;18.20;40.90
64549;DHT22;49838;51.798;10.954;2023-02-15T09:11:18;19.00;42.30
64549;DHT22;49838;51.798;10.954;2023-02-15T09:13:49;20.10;43.80
64549;DHT22;49838;51.798;10.954;2023-02-15T09:16:19;21.20;44.90
64549;DHT22;49838;51.798;10.954;2023-02-15T09:18:48;22.30;45.50
64549;DHT22;49838;51.798;10.954;2023-02-15T09:21:16;23.20;45.30
64549;DHT22;49838;51.798;10.954;2023-02-15T09:23:46;24.00;45.50
64549;DHT22;49838;51.798;10.954;2023-02-15T09:26:16;24.90;45.90
64549;DHT22;49838;51.798;10.954;2023-02-15T09:28:45;25.70;45.70
64549;DHT22;49838;51.798;10.954;2023-02-15T09:31:14;26.50;45.80
64549;DHT22;49838;51.798;10.954;2023-02-15T09:33:43;27.30;45.70
64549;DHT22;49838;51.798;10.954;2023-02-15T09:36:14;27.90;45.70
64549;DHT22;49838;51.798;10.954;2023-02-15T09:38:42;28.50;45.60
64549;DHT22;49838;51.798;10.954;2023-02-15T09:41:19;29.20;45.20
64549;DHT22;49838;51.798;10.954;2023-02-15T09:43:59;29.90;44.80
64549;DHT22;49838;51.798;10.954;2023-02-15T09:46:42;30.40;43.80
64549;DHT22;49838;51.798;10.954;2023-02-15T09:49:22;30.90;43.30
64549;DHT22;49838;51.798;10.954;2023-02-15T09:52:01;31.40;42.40
64549;DHT22;49838;51.798;10.954;2023-02-15T09:54:45;31.90;41.50
64549;DHT22;49838;51.798;10.954;2023-02-15T09:57:23;32.20;40.60
64549;DHT22;49838;51.798;10.954;2023-02-15T10:00:00;32.50;40.00
64549;DHT22;49838;51.798;10.954;2023-02-15T10:02:38;32.80;39.80
64549;DHT22;49838;51.798;10.954;2023-02-15T10:05:21;33.00;39.50
64549;DHT22;49838;51.798;10.954;2023-02-15T10:11:10;33.80;39.40
64549;DHT22;49838;51.798;10.954;2023-02-15T10:14:05;34.20;39.00
64549;DHT22;49838;51.798;10.954;2023-02-15T10:16:44;34.60;38.60
64549;DHT22;49838;51.798;10.954;2023-02-15T10:19:25;34.80;37.90
64549;DHT22;49838;51.798;10.954;2023-02-15T10:22:05;35.10;37.50
64549;DHT22;49838;51.798;10.954;2023-02-15T10:27:55;35.40;36.50
64549;DHT22;49838;51.798;10.954;2023-02-15T10:30:33;35.50;35.70
64549;DHT22;49838;51.798;10.954;2023-02-15T10:33:10;35.60;35.70
64549;DHT22;49838;51.798;10.954;2023-02-15T10:35:47;35.70;35.40
64549;DHT22;49838;51.798;10.954;2023-02-15T10:38:26;35.80;35.60
64549;DHT22;49838;51.798;10.954;2023-02-15T10:41:06;35.90;35.60
64549;DHT22;49838;51.798;10.954;2023-02-15T10:43:47;35.80;35.40
64549;DHT22;49838;51.798;10.954;2023-02-15T10:46:38;36.00;35.40
64549;DHT22;49838;51.798;10.954;2023-02-15T10:49:27;36.20;35.40
64549;DHT22;49838;51.798;10.954;2023-02-15T10:52:23;36.50;35.00
64549;DHT22;49838;51.798;10.954;2023-02-15T10:55:02;36.60;34.90
64549;DHT22;49838;51.798;10.954;2023-02-15T10:57:41;36.80;35.10
64549;DHT22;49838;51.798;10.954;2023-02-15T11:00:19;37.00;34.40
64549;DHT22;49838;51.798;10.954;2023-02-15T11:02:58;37.20;34.60
64549;DHT22;49838;51.798;10.954;2023-02-15T11:05:39;37.30;34.40
64549;DHT22;49838;51.798;10.954;2023-02-15T11:08:14;37.30;34.00
64549;DHT22;49838;51.798;10.954;2023-02-15T11:10:43;37.20;34.40
64549;DHT22;49838;51.798;10.954;2023-02-15T11:13:16;37.40;34.20
64549;DHT22;49838;51.798;10.954;2023-02-15T11:15:46;37.50;33.90
64549;DHT22;49838;51.798;10.954;2023-02-15T11:18:21;37.60;33.60
64549;DHT22;49838;51.798;10.954;2023-02-15T11:20:54;37.60;34.40
64549;DHT22;49838;51.798;10.954;2023-02-15T11:23:24;37.90;33.80
64549;DHT22;49838;51.798;10.954;2023-02-15T11:25:57;38.10;33.60
64549;DHT22;49838;51.798;10.954;2023-02-15T11:28:28;38.30;33.40
64549;DHT22;49838;51.798;10.954;2023-02-15T11:31:02;38.40;33.00
64549;DHT22;49838;51.798;10.954;2023-02-15T11:33:42;38.30;32.60
64549;DHT22;49838;51.798;10.954;2023-02-15T11:36:13;38.20;32.60
64549;DHT22;49838;51.798;10.954;2023-02-15T11:38:45;38.10;32.30
64549;DHT22;49838;51.798;10.954;2023-02-15T11:41:16;37.90;32.30
64549;DHT22;49838;51.798;10.954;2023-02-15T11:43:48;37.60;32.00
64549;DHT22;49838;51.798;10.954;2023-02-15T11:46:21;37.30;31.90
64549;DHT22;49838;51.798;10.954;2023-02-15T11:48:49;36.90;31.30
64549;DHT22;49838;51.798;10.954;2023-02-15T11:51:17;36.30;31.30
64549;DHT22;49838;51.798;10.954;2023-02-15T11:53:50;35.70;31.10
64549;DHT22;49838;51.798;10.954;2023-02-15T11:56:21;34.90;30.50
64549;DHT22;49838;51.798;10.954;2023-02-15T11:58:54;34.00;30.80
64549;DHT22;49838;51.798;10.954;2023-02-15T12:01:28;33.10;30.60
64549;DHT22;49838;51.798;10.954;2023-02-15T12:04:01;32.10;30.70
64549;DHT22;49838;51.798;10.954;2023-02-15T12:06:35;31.10;30.40
64549;DHT22;49838;51.798;10.954;2023-02-15T12:09:12;30.20;30.20
64549;DHT22;49838;51.798;10.954;2023-02-15T12:11:46;29.30;30.00
64549;DHT22;49838;51.798;10.954;2023-02-15T12:14:14;28.40;30.00
64549;DHT22;49838;51.798;10.954;2023-02-15T12:16:42;27.70;30.80
64549;DHT22;49838;51.798;10.954;2023-02-15T12:19:23;27.10;31.00
64549;DHT22;49838;51.798;10.954;2023-02-15T12:21:55;26.50;31.30
64549;DHT22;49838;51.798;10.954;2023-02-15T12:24:25;25.90;31.10
64549;DHT22;49838;51.798;10.954;2023-02-15T12:26:56;25.50;31.50
64549;DHT22;49838;51.798;10.954;2023-02-15T12:29:28;25.00;31.80
64549;DHT22;49838;51.798;10.954;2023-02-15T12:32:01;24.60;31.90
64549;DHT22;49838;51.798;10.954;2023-02-15T12:34:32;24.20;31.50
64549;DHT22;49838;51.798;10.954;2023-02-15T12:37:07;23.70;31.20
64549;DHT22;49838;51.798;10.954;2023-02-15T12:39:37;23.40;31.80
64549;DHT22;49838;51.798;10.954;2023-02-15T12:42:05;23.00;31.90
64549;DHT22;49838;51.798;10.954;2023-02-15T12:44:52;22.80;32.10
64549;DHT22;49838;51.798;10.954;2023-02-15T12:47:25;22.50;32.10
64549;DHT22;49838;51.798;10.954;2023-02-15T12:50:05;22.30;32.10
64549;DHT22;49838;51.798;10.954;2023-02-15T12:52:42;22.20;32.10
64549;DHT22;49838;51.798;10.954;2023-02-15T12:55:11;21.90;31.90
64549;DHT22;49838;51.798;10.954;2023-02-15T12:57:46;21.60;32.00
64549;DHT22;49838;51.798;10.954;2023-02-15T13:00:25;21.50;32.30
64549;DHT22;49838;51.798;10.954;2023-02-15T13:02:54;21.40;32.30
64549;DHT22;49838;51.798;10.954;2023-02-15T13:05:26;21.30;32.30
64549;DHT22;49838;51.798;10.954;2023-02-15T13:07:58;21.10;32.20
64549;DHT22;49838;51.798;10.954;2023-02-15T13:10:29;21.00;32.30
64549;DHT22;49838;51.798;10.954;2023-02-15T13:12:58;21.00;32.20
64549;DHT22;49838;51.798;10.954;2023-02-15T13:15:31;20.90;32.30
64549;DHT22;49838;51.798;10.954;2023-02-15T13:18:01;20.80;32.40
64549;DHT22;49838;51.798;10.954;2023-02-15T13:20:32;20.60;32.40
64549;DHT22;49838;51.798;10.954;2023-02-15T13:23:04;20.60;32.60
64549;DHT22;49838;51.798;10.954;2023-02-15T13:25:51;20.50;32.60
64549;DHT22;49838;51.798;10.954;2023-02-15T13:28:19;20.40;32.50
64549;DHT22;49838;51.798;10.954;2023-02-15T13:30:52;20.40;32.60
64549;DHT22;49838;51.798;10.954;2023-02-15T13:33:22;20.30;32.60
64549;DHT22;49838;51.798;10.954;2023-02-15T13:35:57;20.30;32.60
64549;DHT22;49838;51.798;10.954;2023-02-15T13:41:29;20.10;32.30
64549;DHT22;49838;51.798;10.954;2023-02-15T13:44:03;20.10;32.60
64549;DHT22;49838;51.798;10.954;2023-02-15T13:46:41;20.00;32.60
64549;DHT22;49838;51.798;10.954;2023-02-15T13:49:23;20.00;32.80
64549;DHT22;49838;51.798;10.954;2023-02-15T13:52:08;19.90;32.70
64549;DHT22;49838;51.798;10.954;2023-02-15T13:54:53;19.90;32.80
64549;DHT22;49838;51.798;10.954;2023-02-15T13:57:52;19.90;32.80
64549;DHT22;49838;51.798;10.954;2023-02-15T14:00:30;19.80;33.40
64549;DHT22;49838;51.798;10.954;2023-02-15T14:03:13;19.80;32.80
64549;DHT22;49838;51.798;10.954;2023-02-15T14:06:05;19.70;32.80
64549;DHT22;49838;51.798;10.954;2023-02-15T14:08:48;19.70;32.90
64549;DHT22;49838;51.798;10.954;2023-02-15T14:11:27;19.60;32.80
64549;DHT22;49838;51.798;10.954;2023-02-15T14:14:09;19.60;32.90
64549;DHT22;49838;51.798;10.954;2023-02-15T14:16:45;19.60;32.90
64549;DHT22;49838;51.798;10.954;2023-02-15T14:19:21;19.50;32.90
64549;DHT22;49838;51.798;10.954;2023-02-15T14:21:57;19.50;33.00
64549;DHT22;49838;51.798;10.954;2023-02-15T14:24:32;19.40;33.00
64549;DHT22;49838;51.798;10.954;2023-02-15T14:27:07;19.40;33.00
64549;DHT22;49838;51.798;10.954;2023-02-15T14:29:47;19.40;33.00
64549;DHT22;49838;51.798;10.954;2023-02-15T14:32:18;19.40;33.00
64549;DHT22;49838;51.798;10.954;2023-02-15T14:34:53;19.30;32.90
64549;DHT22;49838;51.798;10.954;2023-02-15T14:37:26;19.30;33.00
64549;DHT22;49838;51.798;10.954;2023-02-15T14:40:05;19.30;33.10
64549;DHT22;49838;51.798;10.954;2023-02-15T14:42:56;19.20;33.20
64549;DHT22;49838;51.798;10.954;2023-02-15T14:45:28;19.20;33.30
64549;DHT22;49838;51.798;10.954;2023-02-15T14:48:02;19.10;33.30
64549;DHT22;49838;51.798;10.954;2023-02-15T14:50:40;19.10;33.40
64549;DHT22;49838;51.798;10.954;2023-02-15T14:53:17;19.00;33.50
64549;DHT22;49838;51.798;10.954;2023-02-15T14:58:56;18.70;33.40
64549;DHT22;49838;51.798;10.954;2023-02-15T15:01:26;18.70;33.80
64549;DHT22;49838;51.798;10.954;2023-02-15T15:03:55;18.60;33.30
64549;DHT22;49838;51.798;10.954;2023-02-15T15:06:27;18.50;33.30
64549;DHT22;49838;51.798;10.954;2023-02-15T15:08:58;18.40;33.20
64549;DHT22;49838;51.798;10.954;2023-02-15T15:11:40;18.30;33.10
64549;DHT22;49838;51.798;10.954;2023-02-15T15:14:10;18.20;33.10
64549;DHT22;49838;51.798;10.954;2023-02-15T15:17:02;18.10;33.10
64549;DHT22;49838;51.798;10.954;2023-02-15T15:22:42;18.00;33.10
64549;DHT22;49838;51.798;10.954;2023-02-15T15:28:22;17.90;33.10
64549;DHT22;49838;51.798;10.954;2023-02-15T15:31:37;17.80;33.20
64549;DHT22;49838;51.798;10.954;2023-02-15T15:37:27;17.70;33.10
64549;DHT22;49838;51.798;10.954;2023-02-15T15:46:11;17.50;33.00
64549;DHT22;49838;51.798;10.954;2023-02-15T15:48:50;17.50;33.00
64549;DHT22;49838;51.798;10.954;2023-02-15T15:51:20;17.40;33.00
64549;DHT22;49838;51.798;10.954;2023-02-15T15:53:52;17.40;33.00
64549;DHT22;49838;51.798;10.954;2023-02-15T15:56:21;17.30;33.00
64549;DHT22;49838;51.798;10.954;2023-02-15T15:58:52;17.20;32.90
64549;DHT22;49838;51.798;10.954;2023-02-15T16:01:26;17.20;32.90
64549;DHT22;49838;51.798;10.954;2023-02-15T16:03:55;17.10;32.80
64549;DHT22;49838;51.798;10.954;2023-02-15T16:06:33;17.10;32.90
64549;DHT22;49838;51.798;10.954;2023-02-15T16:09:11;17.00;32.80
64549;DHT22;49838;51.798;10.954;2023-02-15T16:11:42;16.90;32.80
64549;DHT22;49838;51.798;10.954;2023-02-15T16:14:11;16.80;32.80
64549;DHT22;49838;51.798;10.954;2023-02-15T16:16:41;16.80;32.80
64549;DHT22;49838;51.798;10.954;2023-02-15T16:19:17;16.70;33.10
64549;DHT22;49838;51.798;10.954;2023-02-15T16:21:51;16.50;32.80
64549;DHT22;49838;51.798;10.954;2023-02-15T16:24:22;16.40;32.80
64549;DHT22;49838;51.798;10.954;2023-02-15T16:27:11;16.30;32.70